Time;durP1;ratioP1;P1;durP2;ratioP2;P2;SDS_P1;SDS_P2;PMS_P1;PMS_P2;Temp;Humidity;BMP_temperature;BMP_pressure;BME280_temperature;BME280_humidity;BME280_pressure;Samples;Min_cycle;Max_cycle;Signal;HPM_P1;HPM_P2
2023/12/24 00:02:08;;;;;;;1.50;1.13;;;;;;;8.54;69.69;100003.16;4994748;28;97212;-53
2023/12/24 00:04:33;;;;;;;0.90;0.90;;;;;;;8.54;69.71;100009.41;4996738;28;97823;-53
2023/12/24 00:06:59;;;;;;;1.67;0.90;;;;;;;8.54;69.61;100006.66;4995789;28;97417;-53
2023/12/24 00:09:24;;;;;;;0.93;0.93;;;;;;;8.53;69.63;100005.16;5000039;28;97223;-53
2023/12/24 00:11:49;;;;;;;0.70;0.70;;;;;;;8.57;69.74;100010.38;4999037;28;96937;-53
2023/12/24 00:14:14;;;;;;;1.37;0.80;;;;;;;8.56;69.56;99997.84;4994667;28;96908;-53
2023/12/24 00:16:43;;;;;;;0.90;0.77;;;;;;;8.55;69.55;100010.16;4994521;28;108886;-53
2023/12/24 00:19:08;;;;;;;0.90;0.90;;;;;;;8.57;69.46;100001.38;4995987;28;97200;-53
2023/12/24 00:21:33;;;;;;;0.80;0.80;;;;;;;8.57;69.78;100002.13;4997713;28;96910;-53
2023/12/24 00:23:58;;;;;;;1.57;1.20;;;;;;;8.58;69.76;100005.63;4999083;28;97153;-53
2023/12/24 00:26:24;;;;;;;1.80;1.10;;;;;;;8.59;69.75;99999.59;4996624;28;110765;-53
2023/12/24 00:28:51;;;;;;;1.17;1.10;;;;;;;8.59;69.57;99998.84;4993882;28;109916;-53
2023/12/24 00:31:16;;;;;;;0.90;0.90;;;;;;;8.60;69.79;100000.34;4997944;28;97172;-53
2023/12/24 00:33:42;;;;;;;1.00;1.00;;;;;;;8.59;69.63;100004.34;4996603;28;96968;-53
2023/12/24 00:36:07;;;;;;;0.67;0.67;;;;;;;8.59;69.66;100002.34;4996082;28;104660;-53
2023/12/24 00:38:32;;;;;;;1.10;0.90;;;;;;;8.60;69.63;100000.34;4995609;28;98194;-53
2023/12/24 00:40:58;;;;;;;1.27;0.80;;;;;;;8.56;69.78;99999.88;4996982;28;97051;-54
2023/12/24 00:43:23;;;;;;;0.97;0.80;;;;;;;8.57;69.91;100004.88;4995296;28;96922;-53
2023/12/24 00:45:49;;;;;;;2.60;0.90;;;;;;;8.60;69.74;100006.59;4996138;28;97212;-53
2023/12/24 00:48:14;;;;;;;1.73;0.90;;;;;;;8.59;69.62;100005.09;4995392;28;97167;-54
2023/12/24 00:50:40;;;;;;;0.70;0.70;;;;;;;8.59;69.88;99998.84;4997921;28;96664;-53
2023/12/24 00:53:05;;;;;;;0.70;0.60;;;;;;;8.58;69.83;99998.09;4996428;28;96843;-54
2023/12/24 00:55:30;;;;;;;0.80;0.70;;;;;;;8.60;69.75;100000.34;5000758;28;97270;-54
2023/12/24 00:57:55;;;;;;;1.00;0.70;;;;;;;8.59;69.92;99994.06;4994137;28;106832;-53
2023/12/24 01:00:22;;;;;;;0.60;0.60;;;;;;;8.59;69.91;100005.09;4996875;28;96973;-54
2023/12/24 01:02:47;;;;;;;0.77;0.70;;;;;;;8.58;69.74;100003.59;4998960;28;96712;-53
2023/12/24 01:05:12;;;;;;;0.67;0.67;;;;;;;8.59;69.94;100001.59;4995223;28;111010;-53
2023/12/24 01:07:38;;;;;;;1.53;0.90;;;;;;;8.57;69.72;99993.84;4994408;28;97600;-54
2023/12/24 01:10:05;;;;;;;0.80;0.80;;;;;;;8.57;69.85;99995.84;4993116;28;97183;-53
2023/12/24 01:12:32;;;;;;;0.80;0.60;;;;;;;8.58;69.84;99997.34;4999559;28;96791;-53
2023/12/24 01:14:58;;;;;;;2.00;0.60;;;;;;;8.57;69.83;99998.59;4995348;28;97250;-54
2023/12/24 01:17:23;;;;;;;1.30;0.80;;;;;;;8.54;70.05;100003.91;4992966;28;98533;-54
2023/12/24 01:19:48;;;;;;;1.20;0.80;;;;;;;8.52;69.96;100000.91;4994564;28;97176;-53
2023/12/24 01:22:14;;;;;;;0.63;0.63;;;;;;;8.54;70.14;99995.63;4996332;28;96759;-54
2023/12/24 01:24:39;;;;;;;0.90;0.57;;;;;;;8.53;70.29;100002.38;4996086;28;97393;-53
2023/12/24 01:27:05;;;;;;;0.80;0.57;;;;;;;8.53;69.93;100005.16;4995353;28;108168;-54
2023/12/24 01:29:31;;;;;;;0.80;0.57;;;;;;;8.54;70.21;99998.38;4995505;28;97073;-53
2023/12/24 01:31:56;;;;;;;2.93;0.90;;;;;;;8.52;70.05;100000.91;4998068;28;96989;-53
2023/12/24 01:34:22;;;;;;;0.97;0.60;;;;;;;8.52;70.15;99995.41;4997108;28;97374;-54
2023/12/24 01:36:47;;;;;;;0.60;0.60;;;;;;;8.53;70.19;99994.13;4998684;28;97747;-53
2023/12/24 01:39:13;;;;;;;1.03;0.60;;;;;;;8.56;70.26;99999.88;4999007;28;97002;-53
2023/12/24 01:41:38;;;;;;;0.50;0.40;;;;;;;8.53;70.14;99999.63;4994002;28;97406;-53
2023/12/24 01:44:04;;;;;;;1.27;0.50;;;;;;;8.54;70.22;99998.38;4995061;28;110380;-53
2023/12/24 01:46:29;;;;;;;2.50;0.60;;;;;;;8.56;70.10;100002.66;4995052;28;97176;-53
2023/12/24 01:48:56;;;;;;;0.67;0.60;;;;;;;8.57;70.07;99996.59;4996607;28;97574;-53
2023/12/24 01:51:23;;;;;;;0.90;0.50;;;;;;;8.54;70.11;99990.13;4997366;28;97087;-54
2023/12/24 01:53:50;;;;;;;0.50;0.40;;;;;;;8.57;70.17;99993.09;4997085;28;97019;-53
2023/12/24 01:56:17;;;;;;;1.23;0.70;;;;;;;8.58;69.94;99991.84;4994459;28;96550;-54
2023/12/24 01:58:43;;;;;;;0.50;0.50;;;;;;;8.57;69.89;99995.84;4994388;28;96679;-53
2023/12/24 02:01:09;;;;;;;0.60;0.40;;;;;;;8.56;69.96;99999.88;4994079;28;97018;-54
2023/12/24 02:03:35;;;;;;;0.80;0.57;;;;;;;8.53;70.10;99987.88;4992709;28;97416;-53
2023/12/24 02:06:03;;;;;;;0.60;0.50;;;;;;;8.55;70.03;99988.09;4995807;28;97629;-53
2023/12/24 02:08:28;;;;;;;0.63;0.53;;;;;;;8.58;69.99;99986.34;4996227;28;97028;-54
2023/12/24 02:10:54;;;;;;;0.60;0.60;;;;;;;8.55;70.11;99979.84;4994141;28;96900;-53
2023/12/24 02:13:20;;;;;;;1.00;0.77;;;;;;;8.54;69.98;99983.84;4996627;28;97049;-54
2023/12/24 02:15:46;;;;;;;1.37;0.40;;;;;;;8.54;70.01;99975.56;4994776;28;96995;-53
2023/12/24 02:18:11;;;;;;;0.60;0.50;;;;;;;8.54;69.95;99970.81;4997269;28;96757;-53
2023/12/24 02:20:38;;;;;;;0.60;0.50;;;;;;;8.51;70.10;99963.56;4992843;28;97326;-53
2023/12/24 02:23:03;;;;;;;0.60;0.50;;;;;;;8.54;70.08;99970.06;4998729;28;96818;-54
2023/12/24 02:25:30;;;;;;;0.90;0.50;;;;;;;8.52;70.06;99958.81;4993507;28;97091;-54
2023/12/24 02:28:14;;;;;;;0.60;0.50;;;;;;;8.53;70.08;99960.31;4994958;28;96735;-54
2023/12/24 02:30:47;;;;;;;0.70;0.50;;;;;;;8.52;70.13;99956.06;4994243;28;97016;-54
2023/12/24 02:33:15;;;;;;;0.83;0.50;;;;;;;8.53;69.99;99952.78;4996548;28;97238;-54
2023/12/24 02:35:43;;;;;;;0.70;0.67;;;;;;;8.50;70.16;99959.34;4996874;28;97367;-53
2023/12/24 02:38:09;;;;;;;0.90;0.50;;;;;;;8.51;70.07;99971.84;4994601;28;97019;-53
2023/12/24 02:40:34;;;;;;;0.87;0.50;;;;;;;8.50;70.26;99958.59;4997008;28;97024;-53
2023/12/24 02:43:00;;;;;;;0.80;0.70;;;;;;;8.49;70.30;99954.34;4995392;28;108580;-54
2023/12/24 02:45:25;;;;;;;2.20;0.60;;;;;;;8.48;70.08;99939.06;4998475;28;98767;-54
2023/12/24 02:47:50;;;;;;;0.80;0.80;;;;;;;8.49;70.10;99938.53;4994256;28;97174;-55
2023/12/24 02:50:18;;;;;;;0.70;0.70;;;;;;;8.49;70.13;99929.53;4997353;28;97302;-53
2023/12/24 02:52:44;;;;;;;0.70;0.70;;;;;;;8.48;70.29;99934.31;4994822;28;97584;-54
2023/12/24 02:55:10;;;;;;;0.70;0.70;;;;;;;8.47;70.29;99932.78;4992913;28;98518;-53
2023/12/24 02:57:35;;;;;;;1.43;0.73;;;;;;;8.48;70.34;99939.06;4994408;28;97055;-54
2023/12/24 03:00:00;;;;;;;0.70;0.70;;;;;;;8.48;70.06;99933.56;4997805;28;97675;-54
2023/12/24 03:02:26;;;;;;;0.73;0.70;;;;;;;8.46;70.19;99931.31;4993891;28;97405;-53
2023/12/24 03:04:51;;;;;;;0.80;0.67;;;;;;;8.46;70.30;99931.31;4999363;28;97030;-53
2023/12/24 03:07:16;;;;;;;0.60;0.50;;;;;;;8.46;70.11;99923.06;4998058;28;97009;-53
2023/12/24 03:09:42;;;;;;;1.07;0.60;;;;;;;8.49;70.29;99918.50;4996155;28;97393;-54
2023/12/24 03:12:07;;;;;;;1.17;0.80;;;;;;;8.48;70.16;99919.78;4999533;28;97359;-53
2023/12/24 03:14:33;;;;;;;2.00;0.87;;;;;;;8.45;69.96;99918.78;4997439;28;97340;-54
2023/12/24 03:16:58;;;;;;;0.80;0.77;;;;;;;8.45;70.27;99923.56;4998909;28;96751;-54
2023/12/24 03:19:23;;;;;;;2.50;0.97;;;;;;;8.45;70.32;99920.78;4998423;28;96905;-54
2023/12/24 03:21:48;;;;;;;4.03;1.10;;;;;;;8.46;70.35;99920.28;4994669;28;97485;-54
2023/12/24 03:24:14;;;;;;;1.00;0.90;;;;;;;8.48;70.22;99914.25;4998202;28;106093;-54
2023/12/24 03:26:39;;;;;;;1.13;0.70;;;;;;;8.50;70.35;99923.50;4997616;28;97027;-54
2023/12/24 03:29:05;;;;;;;1.17;0.77;;;;;;;8.50;70.37;99925.50;5001233;28;96835;-54
2023/12/24 03:31:30;;;;;;;1.77;1.20;;;;;;;8.52;70.24;99915.44;4999666;28;97043;-54
2023/12/24 03:33:56;;;;;;;1.10;1.00;;;;;;;8.51;70.17;99922.22;4999079;28;96672;-54
2023/12/24 03:36:21;;;;;;;1.47;0.97;;;;;;;8.51;70.12;99916.72;4996452;28;96585;-54
2023/12/24 03:38:46;;;;;;;1.20;1.17;;;;;;;8.51;70.29;99919.47;4998043;28;97213;-54
2023/12/24 03:41:12;;;;;;;1.30;1.00;;;;;;;8.52;70.21;99915.44;5003135;28;97427;-54
2023/12/24 03:43:38;;;;;;;1.87;1.00;;;;;;;8.52;70.34;99904.44;4995380;28;98698;-54
2023/12/24 03:46:03;;;;;;;1.67;1.20;;;;;;;8.52;70.31;99911.94;4996329;28;98515;-54
2023/12/24 03:48:30;;;;;;;1.03;0.90;;;;;;;8.53;70.21;99925.19;4996500;28;97157;-54
2023/12/24 03:50:55;;;;;;;1.23;1.13;;;;;;;8.54;70.17;99918.44;4997753;28;97041;-54
2023/12/24 03:53:20;;;;;;;1.13;1.13;;;;;;;8.52;70.23;99923.72;4996302;28;98637;-54
2023/12/24 03:55:46;;;;;;;0.80;0.80;;;;;;;8.52;70.27;99915.44;4998719;28;97132;-54
2023/12/24 03:58:11;;;;;;;1.70;1.10;;;;;;;8.51;70.20;99902.19;4998520;28;97048;-54
2023/12/24 04:00:37;;;;;;;1.50;1.17;;;;;;;8.50;70.29;99908.97;4997107;28;97414;-54
2023/12/24 04:03:02;;;;;;;1.17;1.07;;;;;;;8.50;70.29;99915.22;4997001;28;98382;-53
2023/12/24 04:05:28;;;;;;;1.43;1.17;;;;;;;8.51;70.49;99911.19;4997509;28;97107;-54
2023/12/24 04:07:53;;;;;;;1.07;1.00;;;;;;;8.53;70.37;99914.16;4997420;28;96908;-54
2023/12/24 04:10:18;;;;;;;0.83;0.83;;;;;;;8.52;70.31;99900.91;4995563;28;96613;-54
2023/12/24 04:12:44;;;;;;;1.23;1.13;;;;;;;8.51;70.66;99908.44;4997495;28;97114;-54
2023/12/24 04:15:10;;;;;;;2.57;0.90;;;;;;;8.53;70.55;99896.91;4995051;28;96969;-54
2023/12/24 04:17:35;;;;;;;0.90;0.90;;;;;;;8.56;70.50;99906.16;4999438;28;97133;-54
2023/12/24 04:20:05;;;;;;;1.40;1.10;;;;;;;8.58;70.36;99900.88;4997172;28;97256;-54
2023/12/24 04:22:31;;;;;;;1.30;0.70;;;;;;;8.58;70.45;99890.56;4994887;28;97197;-54
2023/12/24 04:24:57;;;;;;;1.20;1.10;;;;;;;8.59;70.44;99894.06;4997464;28;97098;-54
2023/12/24 04:27:23;;;;;;;1.20;1.00;;;;;;;8.56;70.45;99890.34;4998876;28;97507;-53
2023/12/24 04:29:48;;;;;;;2.70;1.23;;;;;;;8.58;70.37;99889.84;4994983;28;97284;-53
2023/12/24 04:32:13;;;;;;;1.00;0.90;;;;;;;8.57;70.62;99893.84;4997601;28;102406;-54
2023/12/24 04:34:39;;;;;;;1.33;1.10;;;;;;;8.52;70.67;99887.88;4996190;28;96997;-54
2023/12/24 04:37:05;;;;;;;1.63;1.33;;;;;;;8.51;70.63;99889.13;4998650;28;97031;-53
2023/12/24 04:39:30;;;;;;;3.30;1.40;;;;;;;8.54;70.76;99899.13;4992462;28;98489;-54
2023/12/24 04:41:55;;;;;;;1.20;1.13;;;;;;;8.57;70.54;99888.34;4999221;28;97083;-54
2023/12/24 04:44:21;;;;;;;2.30;1.30;;;;;;;8.56;70.77;99884.09;5000113;28;97028;-53
2023/12/24 04:46:47;;;;;;;2.10;1.90;;;;;;;8.58;70.70;99884.31;4996478;28;98986;-54
2023/12/24 04:49:13;;;;;;;2.40;0.90;;;;;;;8.59;70.49;99883.03;4999279;28;97285;-54
2023/12/24 04:51:40;;;;;;;1.37;1.27;;;;;;;8.57;70.74;99883.56;4995921;28;98535;-54
2023/12/24 04:54:06;;;;;;;3.27;1.20;;;;;;;8.57;70.66;99869.03;4991860;28;96817;-54
2023/12/24 04:56:32;;;;;;;1.70;1.20;;;;;;;8.56;70.64;99871.03;4994567;28;97244;-54
2023/12/24 04:58:57;;;;;;;2.80;1.10;;;;;;;8.58;70.62;99876.06;4992872;28;97317;-54
2023/12/24 05:01:23;;;;;;;1.00;1.00;;;;;;;8.58;70.76;99863.00;4999135;28;97572;-54
2023/12/24 05:03:48;;;;;;;1.00;0.90;;;;;;;8.56;70.82;99862.03;4997451;28;96943;-54
2023/12/24 05:06:14;;;;;;;1.97;1.10;;;;;;;8.58;70.81;99862.25;4995059;28;97092;-54
2023/12/24 05:08:40;;;;;;;0.90;0.90;;;;;;;8.59;70.67;99861.75;4996778;28;97364;-55
2023/12/24 05:11:07;;;;;;;1.13;0.97;;;;;;;8.59;70.75;99858.22;4998514;28;97216;-54
2023/12/24 05:13:33;;;;;;;1.53;0.97;;;;;;;8.58;70.82;99867.78;4998643;28;96771;-53
2023/12/24 05:15:58;;;;;;;0.83;0.83;;;;;;;8.57;70.56;99858.75;4995568;28;96956;-54
2023/12/24 05:18:24;;;;;;;1.77;1.00;;;;;;;8.60;70.48;99859.72;4994710;28;104101;-54
2023/12/24 05:20:49;;;;;;;1.40;1.30;;;;;;;8.62;70.54;99860.72;4997735;28;97103;-54
2023/12/24 05:23:16;;;;;;;1.37;0.90;;;;;;;8.61;70.61;99850.94;4995630;28;97087;-54
2023/12/24 05:25:41;;;;;;;2.20;1.03;;;;;;;8.61;70.59;99850.19;4997021;28;97040;-54
2023/12/24 05:28:09;;;;;;;1.20;1.10;;;;;;;8.62;70.48;99844.16;4995676;28;97364;-54
2023/12/24 05:30:34;;;;;;;1.20;1.10;;;;;;;8.63;70.67;99853.16;4993704;28;99190;-54
2023/12/24 05:32:59;;;;;;;1.73;1.00;;;;;;;8.64;70.52;99846.38;4995195;28;96804;-54
2023/12/24 05:35:24;;;;;;;1.20;1.10;;;;;;;8.63;70.67;99853.16;4996263;28;96646;-54
2023/12/24 05:37:50;;;;;;;1.40;1.23;;;;;;;8.63;70.67;99861.44;4995488;28;104003;-54
2023/12/24 05:40:16;;;;;;;1.57;1.27;;;;;;;8.64;70.51;99846.38;4996228;28;96954;-53
2023/12/24 05:42:42;;;;;;;1.37;1.20;;;;;;;8.63;70.48;99833.84;4994690;28;97143;-54
2023/12/24 05:45:10;;;;;;;1.20;1.10;;;;;;;8.64;70.67;99844.38;4994504;28;97444;-54
2023/12/24 05:47:36;;;;;;;2.00;1.23;;;;;;;8.64;70.58;99833.34;4993219;28;98616;-54
2023/12/24 05:50:04;;;;;;;1.33;1.23;;;;;;;8.64;70.47;99838.88;4995376;28;97142;-54
2023/12/24 05:52:29;;;;;;;1.43;1.13;;;;;;;8.65;70.74;99840.34;4997022;28;96678;-54
2023/12/24 05:54:54;;;;;;;1.23;1.23;;;;;;;8.62;70.68;99846.91;4993713;28;97106;-54
2023/12/24 05:57:20;;;;;;;1.20;1.10;;;;;;;8.65;70.54;99848.63;4997880;28;97627;-54
2023/12/24 05:59:46;;;;;;;1.50;1.40;;;;;;;8.65;70.58;99832.06;4994715;28;97224;-54
2023/12/24 06:02:11;;;;;;;1.00;1.00;;;;;;;8.65;70.71;99837.59;4994679;28;96898;-54
2023/12/24 06:04:36;;;;;;;1.80;1.63;;;;;;;8.66;70.63;99839.09;4996197;28;97328;-54
2023/12/24 06:07:04;;;;;;;1.30;1.20;;;;;;;8.68;70.76;99833.78;4995651;28;97239;-54
2023/12/24 06:09:29;;;;;;;1.40;1.33;;;;;;;8.70;70.52;99849.81;4994700;28;97271;-54
2023/12/24 06:11:55;;;;;;;1.00;1.00;;;;;;;8.70;70.55;99833.25;4994505;28;97011;-54
2023/12/24 06:14:20;;;;;;;1.33;1.33;;;;;;;8.69;70.62;99845.56;4998798;28;97023;-54
2023/12/24 06:16:45;;;;;;;1.63;1.20;;;;;;;8.67;70.68;99840.56;4994484;28;101928;-54
2023/12/24 06:19:11;;;;;;;5.07;1.43;;;;;;;8.68;70.63;99841.31;4995321;28;97475;-54
2023/12/24 06:21:36;;;;;;;1.27;1.17;;;;;;;8.67;70.53;99846.06;4996505;28;97117;-54
2023/12/24 06:24:01;;;;;;;1.50;1.40;;;;;;;8.66;70.64;99839.09;4992704;28;97083;-54
2023/12/24 06:26:27;;;;;;;1.30;1.20;;;;;;;8.68;70.90;99831.03;4993830;28;96781;-54
2023/12/24 06:28:52;;;;;;;1.33;1.30;;;;;;;8.70;70.74;99836.03;4992023;28;114441;-54
2023/12/24 06:31:22;;;;;;;1.40;1.30;;;;;;;8.70;70.85;99836.03;4996345;28;96931;-54
2023/12/24 06:33:47;;;;;;;1.10;1.10;;;;;;;8.67;70.77;99824.03;4997188;28;97362;-54
2023/12/24 06:36:13;;;;;;;0.93;0.93;;;;;;;8.71;71.00;99826.50;5001170;28;96912;-54
2023/12/24 06:38:38;;;;;;;1.10;1.00;;;;;;;8.71;70.79;99823.72;4998406;28;110379;-54
2023/12/24 06:41:04;;;;;;;1.27;1.17;;;;;;;8.73;70.78;99818.44;4998459;28;96796;-54
2023/12/24 06:43:29;;;;;;;0.90;0.90;;;;;;;8.72;70.74;99823.19;4999015;28;97027;-54
2023/12/24 06:45:54;;;;;;;0.83;0.83;;;;;;;8.73;70.79;99818.44;4996856;28;106685;-54
2023/12/24 06:48:20;;;;;;;1.40;1.30;;;;;;;8.72;70.93;99814.19;4996268;28;96926;-55
2023/12/24 06:50:45;;;;;;;1.00;1.00;;;;;;;8.72;71.00;99833.47;4998141;28;97009;-54
2023/12/24 06:53:10;;;;;;;0.83;0.80;;;;;;;8.73;70.99;99816.41;4995401;28;97464;-54
2023/12/24 06:55:36;;;;;;;1.23;0.90;;;;;;;8.72;70.90;99797.63;4996296;28;109205;-54
2023/12/24 06:58:03;;;;;;;2.50;0.87;;;;;;;8.73;71.00;99802.63;4993956;28;97148;-55
2023/12/24 07:00:28;;;;;;;2.50;0.87;;;;;;;8.73;70.89;99807.41;4997021;28;96723;-55
2023/12/24 07:02:53;;;;;;;0.90;0.90;;;;;;;8.72;70.97;99797.63;4999045;28;97126;-54
2023/12/24 07:05:19;;;;;;;1.23;0.90;;;;;;;8.75;71.06;99791.09;4998536;28;97558;-54
2023/12/24 07:07:44;;;;;;;1.40;0.70;;;;;;;8.75;71.10;99791.09;4999887;28;111500;-54
2023/12/24 07:10:09;;;;;;;1.10;0.70;;;;;;;8.76;70.85;99787.03;4999819;28;96744;-54
2023/12/24 07:12:35;;;;;;;0.77;0.77;;;;;;;8.78;70.76;99782.50;4999157;28;97444;-54
2023/12/24 07:15:01;;;;;;;0.60;0.60;;;;;;;8.79;70.89;99788.75;5000791;28;97085;-54
2023/12/24 07:17:26;;;;;;;0.60;0.60;;;;;;;8.81;70.93;99789.72;4997620;28;97035;-55
2023/12/24 07:19:51;;;;;;;1.00;0.60;;;;;;;8.80;70.91;99782.72;4999613;28;97259;-54
2023/12/24 07:22:17;;;;;;;1.90;0.97;;;;;;;8.80;70.92;99771.69;4998431;28;97214;-54
2023/12/24 07:24:43;;;;;;;0.80;0.50;;;;;;;8.82;71.06;99771.19;4997172;28;97489;-55
2023/12/24 07:27:08;;;;;;;0.50;0.40;;;;;;;8.83;71.25;99769.88;4997333;28;96778;-55
2023/12/24 07:29:34;;;;;;;3.17;0.53;;;;;;;8.84;71.08;99776.91;4995031;28;96934;-54
2023/12/24 07:31:59;;;;;;;0.50;0.50;;;;;;;8.85;71.10;99779.13;4998165;28;96954;-55
2023/12/24 07:34:24;;;;;;;0.60;0.40;;;;;;;8.87;71.17;99775.84;5000161;28;97226;-54
2023/12/24 07:36:50;;;;;;;1.90;0.63;;;;;;;8.90;71.05;99774.81;4998926;28;97110;-55
2023/12/24 07:39:15;;;;;;;0.80;0.40;;;;;;;8.91;70.84;99776.28;4998049;28;96762;-54
2023/12/24 07:41:42;;;;;;;0.60;0.50;;;;;;;8.93;70.99;99768.22;4998969;28;97197;-54
2023/12/24 07:44:09;;;;;;;0.50;0.33;;;;;;;8.95;71.01;99782.25;4997417;28;97193;-54
2023/12/24 07:46:35;;;;;;;1.27;0.40;;;;;;;8.96;70.84;99772.69;4997234;28;97341;-55
2023/12/24 07:49:00;;;;;;;0.60;0.47;;;;;;;8.95;71.00;99773.97;4999894;28;96896;-55
2023/12/24 07:51:28;;;;;;;0.60;0.50;;;;;;;8.98;71.08;99761.88;4998118;28;96895;-55
2023/12/24 07:53:53;;;;;;;0.50;0.40;;;;;;;9.01;71.09;99774.63;4997920;28;97148;-54
2023/12/24 07:56:18;;;;;;;1.17;0.30;;;;;;;9.01;71.13;99769.84;4996057;28;98364;-54
2023/12/24 07:58:44;;;;;;;0.60;0.40;;;;;;;9.03;71.00;99775.59;4999185;28;97022;-55
2023/12/24 08:01:09;;;;;;;1.20;0.63;;;;;;;9.06;70.93;99779.28;5000479;28;97211;-55
2023/12/24 08:03:35;;;;;;;0.50;0.50;;;;;;;9.04;71.02;99760.50;4999752;28;97687;-55
2023/12/24 08:06:00;;;;;;;3.17;0.80;;;;;;;9.05;71.18;99764.75;4995695;28;96694;-55
2023/12/24 08:08:26;;;;;;;0.80;0.60;;;;;;;9.06;71.12;99765.50;4996259;28;97073;-54
2023/12/24 08:10:51;;;;;;;0.70;0.63;;;;;;;9.08;71.09;99769.22;4996888;28;98501;-55
2023/12/24 08:13:17;;;;;;;0.60;0.60;;;;;;;9.10;71.21;99768.69;4996402;28;99122;-55
2023/12/24 08:15:42;;;;;;;0.60;0.30;;;;;;;9.12;71.08;99779.97;4995556;28;97425;-55
2023/12/24 08:18:07;;;;;;;0.50;0.40;;;;;;;9.12;71.30;99764.13;4995841;28;97410;-54
2023/12/24 08:20:33;;;;;;;0.50;0.40;;;;;;;9.15;71.31;99763.06;4994854;28;97137;-55
2023/12/24 08:22:58;;;;;;;1.00;0.50;;;;;;;9.17;71.16;99770.81;4995212;28;109563;-54
2023/12/24 08:25:23;;;;;;;0.60;0.40;;;;;;;9.18;71.19;99759.28;4994453;28;97202;-55
2023/12/24 08:27:49;;;;;;;1.37;0.30;;;;;;;9.21;71.24;99763.72;4997270;28;97065;-54
2023/12/24 08:30:14;;;;;;;0.50;0.40;;;;;;;9.24;71.29;99776.47;4995849;28;97083;-55
2023/12/24 08:32:39;;;;;;;0.50;0.43;;;;;;;9.24;71.15;99773.72;4998493;28;97297;-55
2023/12/24 08:35:05;;;;;;;0.50;0.40;;;;;;;9.26;71.22;99762.13;4994835;28;97128;-54
2023/12/24 08:37:30;;;;;;;0.50;0.40;;;;;;;9.30;71.30;99768.09;4996800;28;97036;-54
2023/12/24 08:39:56;;;;;;;0.50;0.30;;;;;;;9.34;71.13;99768.53;4998652;28;96848;-54
2023/12/24 08:42:21;;;;;;;1.03;0.30;;;;;;;9.33;71.13;99764.28;4994617;28;112234;-55
2023/12/24 08:44:46;;;;;;;1.23;0.40;;;;;;;9.35;71.26;99761.72;4994702;28;97304;-55
2023/12/24 08:47:12;;;;;;;0.50;0.30;;;;;;;9.36;71.23;99754.94;4996716;28;96703;-55
2023/12/24 08:49:37;;;;;;;1.90;0.40;;;;;;;9.39;71.26;99742.09;4996227;28;96705;-54
2023/12/24 08:52:02;;;;;;;0.50;0.30;;;;;;;9.43;71.18;99757.06;4996192;28;99986;-54
2023/12/24 08:54:28;;;;;;;0.50;0.40;;;;;;;9.46;70.96;99764.28;4994759;28;98719;-54
2023/12/24 08:56:53;;;;;;;0.90;0.40;;;;;;;9.47;71.08;99748.47;4997427;28;96751;-54
2023/12/24 08:59:18;;;;;;;0.77;0.40;;;;;;;9.49;71.16;99746.66;4995427;28;96700;-54
2023/12/24 09:01:45;;;;;;;0.60;0.40;;;;;;;9.52;71.22;99742.13;4995839;28;97538;-54
2023/12/24 09:04:10;;;;;;;0.50;0.30;;;;;;;9.56;71.22;99753.59;4999283;28;98173;-55
2023/12/24 09:06:37;;;;;;;0.50;0.30;;;;;;;9.57;71.01;99749.56;4995240;28;97006;-54
2023/12/24 09:09:03;;;;;;;0.50;0.30;;;;;;;9.60;71.09;99745.75;4993342;28;97419;-54
2023/12/24 09:11:29;;;;;;;0.50;0.30;;;;;;;9.61;71.12;99761.78;4994924;28;96800;-54
2023/12/24 09:13:54;;;;;;;0.70;0.60;;;;;;;9.63;71.20;99745.41;4996791;28;97674;-55
2023/12/24 09:16:19;;;;;;;0.50;0.30;;;;;;;9.64;71.13;99737.88;4996265;28;96616;-54
2023/12/24 09:18:45;;;;;;;0.60;0.30;;;;;;;9.66;71.19;99747.13;4997549;28;97183;-54
2023/12/24 09:21:10;;;;;;;0.50;0.30;;;;;;;9.68;71.00;99744.56;4996502;28;96971;-54
2023/12/24 09:23:35;;;;;;;0.50;0.30;;;;;;;9.72;71.21;99769.09;4995970;28;97135;-54
2023/12/24 09:26:01;;;;;;;0.60;0.40;;;;;;;9.73;71.40;99759.53;4992466;28;96986;-54
2023/12/24 09:28:26;;;;;;;1.70;0.40;;;;;;;9.75;71.19;99743.19;4994112;28;96844;-54
2023/12/24 09:30:51;;;;;;;0.50;0.30;;;;;;;9.75;71.10;99741.19;4995159;28;97659;-54
2023/12/24 09:33:17;;;;;;;1.93;0.30;;;;;;;9.76;71.30;99737.13;4995007;28;105105;-55
2023/12/24 09:35:43;;;;;;;0.83;0.30;;;;;;;9.76;71.30;99739.88;4996465;28;96912;-55
2023/12/24 09:38:10;;;;;;;0.50;0.30;;;;;;;9.80;71.33;99736.81;4995706;28;97072;-54
2023/12/24 09:40:35;;;;;;;0.50;0.37;;;;;;;9.82;71.35;99754.31;4992656;28;97195;-54
2023/12/24 09:43:01;;;;;;;0.60;0.40;;;;;;;9.84;71.37;99765.59;4994330;28;96837;-55
2023/12/24 09:45:28;;;;;;;0.97;0.30;;;;;;;9.88;71.04;99757.72;4994011;28;97159;-55
2023/12/24 09:47:53;;;;;;;1.47;0.50;;;;;;;9.91;71.34;99764.22;4999366;28;97090;-55
2023/12/24 09:50:19;;;;;;;2.03;0.50;;;;;;;9.92;71.43;99749.13;4996907;28;98692;-55
2023/12/24 09:52:45;;;;;;;0.60;0.40;;;;;;;9.94;71.37;99746.56;4997158;28;97097;-55
2023/12/24 09:55:10;;;;;;;0.70;0.30;;;;;;;9.97;71.34;99753.78;4993439;28;97385;-54
2023/12/24 09:57:36;;;;;;;0.67;0.40;;;;;;;9.99;71.41;99751.97;4993834;28;96992;-54
2023/12/24 10:00:01;;;;;;;0.60;0.30;;;;;;;10.01;71.27;99746.66;4994646;28;98214;-54
2023/12/24 10:02:27;;;;;;;1.10;0.30;;;;;;;10.03;71.26;99757.91;4995219;28;97724;-54
2023/12/24 10:04:52;;;;;;;0.60;0.30;;;;;;;10.01;71.42;99746.66;4997679;28;97109;-54
2023/12/24 10:07:18;;;;;;;4.87;0.40;;;;;;;10.02;71.38;99761.19;4997014;28;97545;-55
2023/12/24 10:09:49;;;;;;;0.50;0.30;;;;;;;10.03;71.44;99755.16;4999573;28;97128;-55
2023/12/24 10:12:15;;;;;;;0.50;0.30;;;;;;;10.04;71.48;99745.56;4998677;28;97023;-53
2023/12/24 10:14:54;;;;;;;0.97;0.30;;;;;;;10.06;71.59;99741.56;5001111;28;96761;-55
2023/12/24 10:17:30;;;;;;;1.57;0.30;;;;;;;10.10;71.67;99739.19;5000488;28;96787;-54
2023/12/24 10:19:56;;;;;;;0.50;0.30;;;;;;;10.10;71.60;99737.19;4999443;28;97940;-55
2023/12/24 10:22:26;;;;;;;0.83;0.30;;;;;;;10.13;71.32;99735.38;4997794;28;99265;-54
2023/12/24 10:25:06;;;;;;;0.50;0.30;;;;;;;10.14;71.31;99732.06;4998647;28;97028;-54
2023/12/24 10:27:32;;;;;;;0.60;0.30;;;;;;;10.14;71.48;99731.31;4996222;28;97359;-54
2023/12/24 10:30:09;;;;;;;2.30;0.40;;;;;;;10.16;71.39;99737.06;5000841;28;98635;-54
2023/12/24 10:32:34;;;;;;;0.50;0.30;;;;;;;10.16;71.45;99746.09;4997781;28;97157;-55
2023/12/24 10:35:00;;;;;;;0.50;0.30;;;;;;;10.17;71.36;99733.78;5002265;28;97017;-54
2023/12/24 10:37:26;;;;;;;0.50;0.30;;;;;;;10.21;71.43;99730.66;4997841;28;97151;-54
2023/12/24 10:39:53;;;;;;;0.70;0.40;;;;;;;10.24;71.38;99737.91;5000370;28;97757;-54
2023/12/24 10:42:19;;;;;;;0.50;0.30;;;;;;;10.24;71.36;99729.59;4996671;28;97195;-55
2023/12/24 10:44:45;;;;;;;4.83;0.60;;;;;;;10.25;71.45;99720.00;4999925;28;96869;-54
2023/12/24 10:47:11;;;;;;;1.37;0.40;;;;;;;10.27;71.63;99720.22;4998191;28;97111;-55
2023/12/24 10:49:36;;;;;;;0.70;0.33;;;;;;;10.29;71.49;99714.91;4996068;28;99452;-55
2023/12/24 10:52:01;;;;;;;0.50;0.40;;;;;;;10.30;71.50;99719.16;4996212;28;97110;-54
2023/12/24 10:54:27;;;;;;;0.80;0.30;;;;;;;10.33;71.36;99709.78;4999235;28;97020;-55
2023/12/24 10:57:02;;;;;;;0.50;0.40;;;;;;;10.33;71.32;99710.53;4997028;28;97594;-54
2023/12/24 11:00:07;;;;;;;0.80;0.40;;;;;;;10.30;71.73;99705.34;4999197;28;97350;-54
2023/12/24 11:02:35;;;;;;;0.50;0.30;;;;;;;10.33;71.61;99702.22;4997439;28;97285;-54
2023/12/24 11:05:00;;;;;;;0.50;0.30;;;;;;;10.36;71.69;99697.66;4999835;28;96922;-55
2023/12/24 11:07:32;;;;;;;1.17;0.40;;;;;;;10.41;71.49;99682.97;4997694;28;96778;-54
2023/12/24 11:09:57;;;;;;;1.90;0.40;;;;;;;10.45;71.50;99672.31;4997147;28;97287;-54
2023/12/24 11:12:30;;;;;;;0.50;0.30;;;;;;;10.48;71.46;99687.81;5001087;28;97034;-54
2023/12/24 11:14:55;;;;;;;0.50;0.40;;;;;;;10.46;71.38;99677.28;4994792;28;96975;-55
2023/12/24 11:17:39;;;;;;;0.50;0.30;;;;;;;10.49;71.42;99681.00;4995792;28;97484;-55
2023/12/24 11:20:26;;;;;;;0.60;0.40;;;;;;;10.51;71.42;99675.69;4996271;28;97471;-55
2023/12/24 11:23:03;;;;;;;0.50;0.30;;;;;;;10.54;71.41;99671.84;4995392;28;97259;-55
2023/12/24 11:25:35;;;;;;;0.50;0.30;;;;;;;10.55;71.19;99676.81;4997350;28;97141;-55
2023/12/24 11:28:02;;;;;;;0.60;0.30;;;;;;;10.58;71.37;99681.28;4997511;28;97176;-54
2023/12/24 11:30:27;;;;;;;0.50;0.30;;;;;;;10.59;71.39;99665.41;4996283;28;98719;-54
2023/12/24 11:32:52;;;;;;;1.07;0.30;;;;;;;10.63;71.13;99660.31;4999040;28;112941;-54
2023/12/24 11:35:53;;;;;;;2.60;0.30;;;;;;;10.65;71.39;99663.28;4999530;28;97380;-55